sensor_id;sensor_type;location;lat;lon;timestamp;temperature;humidity
42135;DHT22;28312;43.460;11.810;2022-07-29T00:00:54;20.90;60.50
42135;DHT22;28312;43.460;11.810;2022-07-29T00:04:58;20.90;60.40
42135;DHT22;28312;43.460;11.810;2022-07-29T00:09:02;20.80;60.50
42135;DHT22;28312;43.460;11.810;2022-07-29T00:13:06;20.80;60.50
42135;DHT22;28312;43.460;11.810;2022-07-29T00:17:10;20.70;60.60
42135;DHT22;28312;43.460;11.810;2022-07-29T00:21:21;20.70;60.70
42135;DHT22;28312;43.460;11.810;2022-07-29T00:25:25;20.70;60.70
42135;DHT22;28312;43.460;11.810;2022-07-29T00:29:29;20.70;60.60
42135;DHT22;28312;43.460;11.810;2022-07-29T00:33:36;20.70;60.80
42135;DHT22;28312;43.460;11.810;2022-07-29T00:37:40;20.60;60.90
42135;DHT22;28312;43.460;11.810;2022-07-29T00:41:44;20.60;61.10
42135;DHT22;28312;43.460;11.810;2022-07-29T00:45:47;20.50;61.10
42135;DHT22;28312;43.460;11.810;2022-07-29T00:49:51;20.60;61.00
42135;DHT22;28312;43.460;11.810;2022-07-29T00:53:56;20.50;61.10
42135;DHT22;28312;43.460;11.810;2022-07-29T00:58:00;20.40;61.20
42135;DHT22;28312;43.460;11.810;2022-07-29T01:02:04;20.50;61.20
42135;DHT22;28312;43.460;11.810;2022-07-29T01:06:08;20.40;61.40
42135;DHT22;28312;43.460;11.810;2022-07-29T01:10:15;20.40;61.40
42135;DHT22;28312;43.460;11.810;2022-07-29T01:14:21;20.30;61.50
42135;DHT22;28312;43.460;11.810;2022-07-29T01:18:34;20.30;61.50
42135;DHT22;28312;43.460;11.810;2022-07-29T01:27:41;20.10;61.70
42135;DHT22;28312;43.460;11.810;2022-07-29T01:31:53;20.10;61.60
42135;DHT22;28312;43.460;11.810;2022-07-29T01:36:10;20.10;61.90
42135;DHT22;28312;43.460;11.810;2022-07-29T01:40:25;20.00;61.80
42135;DHT22;28312;43.460;11.810;2022-07-29T01:44:34;20.00;61.90
42135;DHT22;28312;43.460;11.810;2022-07-29T01:48:47;19.90;62.00
42135;DHT22;28312;43.460;11.810;2022-07-29T01:52:56;19.90;62.10
42135;DHT22;28312;43.460;11.810;2022-07-29T01:57:03;19.90;62.20
42135;DHT22;28312;43.460;11.810;2022-07-29T02:01:09;19.80;62.20
42135;DHT22;28312;43.460;11.810;2022-07-29T02:05:17;19.70;62.30
42135;DHT22;28312;43.460;11.810;2022-07-29T02:09:22;19.70;62.40
42135;DHT22;28312;43.460;11.810;2022-07-29T02:13:27;19.70;62.20
42135;DHT22;28312;43.460;11.810;2022-07-29T02:18:00;19.70;62.20
42135;DHT22;28312;43.460;11.810;2022-07-29T02:22:05;19.60;62.30
42135;DHT22;28312;43.460;11.810;2022-07-29T02:26:10;19.60;62.60
42135;DHT22;28312;43.460;11.810;2022-07-29T02:30:15;19.60;62.60
42135;DHT22;28312;43.460;11.810;2022-07-29T02:34:20;19.60;62.60
42135;DHT22;28312;43.460;11.810;2022-07-29T02:38:26;19.60;62.50
42135;DHT22;28312;43.460;11.810;2022-07-29T02:42:49;19.60;62.60
42135;DHT22;28312;43.460;11.810;2022-07-29T02:47:02;19.50;62.70
42135;DHT22;28312;43.460;11.810;2022-07-29T02:51:13;19.50;62.80
42135;DHT22;28312;43.460;11.810;2022-07-29T02:55:45;19.50;62.80
42135;DHT22;28312;43.460;11.810;2022-07-29T02:59:51;19.50;62.70
42135;DHT22;28312;43.460;11.810;2022-07-29T03:03:56;19.40;62.90
42135;DHT22;28312;43.460;11.810;2022-07-29T03:08:05;19.40;62.90
42135;DHT22;28312;43.460;11.810;2022-07-29T03:12:11;19.40;63.00
42135;DHT22;28312;43.460;11.810;2022-07-29T03:16:18;19.40;63.00
42135;DHT22;28312;43.460;11.810;2022-07-29T03:20:21;19.30;63.00
42135;DHT22;28312;43.460;11.810;2022-07-29T03:24:32;19.20;63.10
42135;DHT22;28312;43.460;11.810;2022-07-29T03:28:37;19.20;63.20
42135;DHT22;28312;43.460;11.810;2022-07-29T03:32:41;19.20;63.20
42135;DHT22;28312;43.460;11.810;2022-07-29T03:36:47;19.20;63.20
42135;DHT22;28312;43.460;11.810;2022-07-29T03:40:56;19.10;63.20
42135;DHT22;28312;43.460;11.810;2022-07-29T03:45:10;19.10;63.20
42135;DHT22;28312;43.460;11.810;2022-07-29T03:49:15;19.10;63.30
42135;DHT22;28312;43.460;11.810;2022-07-29T03:53:20;19.00;63.30
42135;DHT22;28312;43.460;11.810;2022-07-29T03:57:25;18.90;63.40
42135;DHT22;28312;43.460;11.810;2022-07-29T04:01:32;19.00;63.50
42135;DHT22;28312;43.460;11.810;2022-07-29T04:05:37;19.00;63.50
42135;DHT22;28312;43.460;11.810;2022-07-29T04:09:41;18.90;63.40
42135;DHT22;28312;43.460;11.810;2022-07-29T04:13:46;18.90;63.50
42135;DHT22;28312;43.460;11.810;2022-07-29T04:17:50;18.90;63.60
42135;DHT22;28312;43.460;11.810;2022-07-29T04:21:53;18.90;63.70
42135;DHT22;28312;43.460;11.810;2022-07-29T04:25:57;18.80;63.70
42135;DHT22;28312;43.460;11.810;2022-07-29T04:30:02;18.90;63.80
42135;DHT22;28312;43.460;11.810;2022-07-29T04:34:06;18.90;63.90
42135;DHT22;28312;43.460;11.810;2022-07-29T04:38:11;18.90;64.10
42135;DHT22;28312;43.460;11.810;2022-07-29T04:42:19;18.90;64.20
42135;DHT22;28312;43.460;11.810;2022-07-29T04:46:32;18.90;64.20
42135;DHT22;28312;43.460;11.810;2022-07-29T04:50:38;19.00;64.30
42135;DHT22;28312;43.460;11.810;2022-07-29T04:54:43;19.10;64.50
42135;DHT22;28312;43.460;11.810;2022-07-29T04:58:46;19.20;64.40
42135;DHT22;28312;43.460;11.810;2022-07-29T05:02:50;19.20;64.50
42135;DHT22;28312;43.460;11.810;2022-07-29T05:06:56;19.40;64.50
42135;DHT22;28312;43.460;11.810;2022-07-29T05:11:00;19.60;64.50
42135;DHT22;28312;43.460;11.810;2022-07-29T05:15:15;19.70;64.60
42135;DHT22;28312;43.460;11.810;2022-07-29T05:19:20;19.90;64.70
42135;DHT22;28312;43.460;11.810;2022-07-29T05:23:23;20.20;64.60
42135;DHT22;28312;43.460;11.810;2022-07-29T05:27:27;20.40;64.60
42135;DHT22;28312;43.460;11.810;2022-07-29T05:31:31;20.60;64.70
42135;DHT22;28312;43.460;11.810;2022-07-29T05:35:34;20.90;64.60
42135;DHT22;28312;43.460;11.810;2022-07-29T05:39:40;21.10;64.70
42135;DHT22;28312;43.460;11.810;2022-07-29T05:43:52;21.30;64.60
42135;DHT22;28312;43.460;11.810;2022-07-29T05:47:56;21.60;64.60
42135;DHT22;28312;43.460;11.810;2022-07-29T05:52:00;21.90;64.50
42135;DHT22;28312;43.460;11.810;2022-07-29T05:56:04;22.10;64.40
42135;DHT22;28312;43.460;11.810;2022-07-29T06:00:09;22.40;64.30
42135;DHT22;28312;43.460;11.810;2022-07-29T06:04:15;22.70;64.20
42135;DHT22;28312;43.460;11.810;2022-07-29T06:08:19;22.90;64.20
42135;DHT22;28312;43.460;11.810;2022-07-29T06:12:23;23.20;64.10
42135;DHT22;28312;43.460;11.810;2022-07-29T06:16:27;23.60;64.00
42135;DHT22;28312;43.460;11.810;2022-07-29T06:20:32;23.80;63.80
42135;DHT22;28312;43.460;11.810;2022-07-29T06:24:36;24.10;63.70
42135;DHT22;28312;43.460;11.810;2022-07-29T06:28:41;24.30;63.50
42135;DHT22;28312;43.460;11.810;2022-07-29T06:32:46;24.60;63.40
42135;DHT22;28312;43.460;11.810;2022-07-29T06:36:50;24.70;63.20
42135;DHT22;28312;43.460;11.810;2022-07-29T06:40:56;24.90;63.10
42135;DHT22;28312;43.460;11.810;2022-07-29T06:45:06;25.10;63.00
42135;DHT22;28312;43.460;11.810;2022-07-29T06:49:11;25.20;62.90
42135;DHT22;28312;43.460;11.810;2022-07-29T06:53:16;25.40;62.90
42135;DHT22;28312;43.460;11.810;2022-07-29T06:57:19;25.60;62.90
42135;DHT22;28312;43.460;11.810;2022-07-29T07:01:23;25.70;62.90
42135;DHT22;28312;43.460;11.810;2022-07-29T07:05:28;25.90;62.70
42135;DHT22;28312;43.460;11.810;2022-07-29T07:09:33;26.20;62.50
42135;DHT22;28312;43.460;11.810;2022-07-29T07:13:42;26.40;62.30
42135;DHT22;28312;43.460;11.810;2022-07-29T07:17:47;26.50;62.00
42135;DHT22;28312;43.460;11.810;2022-07-29T07:21:53;26.70;61.80
42135;DHT22;28312;43.460;11.810;2022-07-29T07:25:57;26.80;61.60
42135;DHT22;28312;43.460;11.810;2022-07-29T07:30:05;27.00;61.50
42135;DHT22;28312;43.460;11.810;2022-07-29T07:34:09;27.10;61.50
42135;DHT22;28312;43.460;11.810;2022-07-29T07:38:13;27.30;61.40
42135;DHT22;28312;43.460;11.810;2022-07-29T07:42:17;27.50;61.40
42135;DHT22;28312;43.460;11.810;2022-07-29T07:46:21;27.60;61.10
42135;DHT22;28312;43.460;11.810;2022-07-29T07:50:25;27.80;61.00
42135;DHT22;28312;43.460;11.810;2022-07-29T07:54:31;28.00;60.70
42135;DHT22;28312;43.460;11.810;2022-07-29T07:58:38;28.10;60.70
42135;DHT22;28312;43.460;11.810;2022-07-29T08:02:42;28.30;60.60
42135;DHT22;28312;43.460;11.810;2022-07-29T08:06:46;28.60;60.50
42135;DHT22;28312;43.460;11.810;2022-07-29T08:10:51;28.70;60.60
42135;DHT22;28312;43.460;11.810;2022-07-29T08:14:57;28.90;60.30
42135;DHT22;28312;43.460;11.810;2022-07-29T08:19:00;29.00;60.20
42135;DHT22;28312;43.460;11.810;2022-07-29T08:23:05;29.10;60.00
42135;DHT22;28312;43.460;11.810;2022-07-29T08:27:10;29.10;59.70
42135;DHT22;28312;43.460;11.810;2022-07-29T08:31:34;29.20;60.00
42135;DHT22;28312;43.460;11.810;2022-07-29T08:35:39;29.30;59.80
42135;DHT22;28312;43.460;11.810;2022-07-29T08:39:43;29.50;59.60
42135;DHT22;28312;43.460;11.810;2022-07-29T08:43:48;29.60;59.50
42135;DHT22;28312;43.460;11.810;2022-07-29T08:47:52;29.60;59.20
42135;DHT22;28312;43.460;11.810;2022-07-29T08:51:57;29.70;59.20
42135;DHT22;28312;43.460;11.810;2022-07-29T08:56:02;29.90;59.10
42135;DHT22;28312;43.460;11.810;2022-07-29T09:00:07;30.10;59.10
42135;DHT22;28312;43.460;11.810;2022-07-29T09:04:14;30.40;58.40
42135;DHT22;28312;43.460;11.810;2022-07-29T09:08:19;30.40;57.80
42135;DHT22;28312;43.460;11.810;2022-07-29T09:12:24;30.60;57.70
42135;DHT22;28312;43.460;11.810;2022-07-29T09:17:07;30.60;57.70
42135;DHT22;28312;43.460;11.810;2022-07-29T09:21:16;30.90;57.60
42135;DHT22;28312;43.460;11.810;2022-07-29T09:25:40;31.10;57.40
42135;DHT22;28312;43.460;11.810;2022-07-29T09:34:04;31.60;57.10
42135;DHT22;28312;43.460;11.810;2022-07-29T09:38:12;31.90;56.50
42135;DHT22;28312;43.460;11.810;2022-07-29T09:42:27;32.00;56.50
42135;DHT22;28312;43.460;11.810;2022-07-29T09:46:31;32.20;56.30
42135;DHT22;28312;43.460;11.810;2022-07-29T09:50:40;32.30;56.00
42135;DHT22;28312;43.460;11.810;2022-07-29T09:54:45;32.40;55.80
42135;DHT22;28312;43.460;11.810;2022-07-29T09:59:05;32.50;55.50
42135;DHT22;28312;43.460;11.810;2022-07-29T10:03:10;32.70;55.60
42135;DHT22;28312;43.460;11.810;2022-07-29T10:07:15;33.00;55.10
42135;DHT22;28312;43.460;11.810;2022-07-29T10:11:19;33.10;54.90
42135;DHT22;28312;43.460;11.810;2022-07-29T10:15:25;33.30;54.80
42135;DHT22;28312;43.460;11.810;2022-07-29T10:19:30;33.50;54.40
42135;DHT22;28312;43.460;11.810;2022-07-29T10:23:35;33.60;54.20
42135;DHT22;28312;43.460;11.810;2022-07-29T10:27:50;33.80;53.20
42135;DHT22;28312;43.460;11.810;2022-07-29T10:36:04;34.00;53.20
42135;DHT22;28312;43.460;11.810;2022-07-29T10:45:02;34.30;52.40
42135;DHT22;28312;43.460;11.810;2022-07-29T10:49:17;34.50;53.10
42135;DHT22;28312;43.460;11.810;2022-07-29T10:54:01;34.70;53.20
42135;DHT22;28312;43.460;11.810;2022-07-29T10:58:21;35.00;52.90
42135;DHT22;28312;43.460;11.810;2022-07-29T11:15:52;36.00;51.70
42135;DHT22;28312;43.460;11.810;2022-07-29T11:24:34;36.20;50.80
42135;DHT22;28312;43.460;11.810;2022-07-29T11:28:57;36.30;50.70
42135;DHT22;28312;43.460;11.810;2022-07-29T11:33:02;36.50;50.60
42135;DHT22;28312;43.460;11.810;2022-07-29T11:41:21;36.60;49.40
42135;DHT22;28312;43.460;11.810;2022-07-29T11:45:27;36.60;48.90
42135;DHT22;28312;43.460;11.810;2022-07-29T11:49:50;36.60;48.50
42135;DHT22;28312;43.460;11.810;2022-07-29T11:53:56;36.60;48.20
42135;DHT22;28312;43.460;11.810;2022-07-29T11:58:07;36.60;47.60
42135;DHT22;28312;43.460;11.810;2022-07-29T12:02:14;36.50;47.90
42135;DHT22;28312;43.460;11.810;2022-07-29T12:06:37;36.50;47.20
42135;DHT22;28312;43.460;11.810;2022-07-29T12:10:42;36.50;47.40
42135;DHT22;28312;43.460;11.810;2022-07-29T12:14:47;36.70;47.40
42135;DHT22;28312;43.460;11.810;2022-07-29T12:18:56;36.80;46.80
42135;DHT22;28312;43.460;11.810;2022-07-29T12:23:05;37.00;45.70
42135;DHT22;28312;43.460;11.810;2022-07-29T12:27:12;37.00;45.20
42135;DHT22;28312;43.460;11.810;2022-07-29T12:31:20;37.20;44.90
42135;DHT22;28312;43.460;11.810;2022-07-29T12:35:46;37.50;44.40
42135;DHT22;28312;43.460;11.810;2022-07-29T12:40:13;37.50;43.70
42135;DHT22;28312;43.460;11.810;2022-07-29T12:44:18;37.50;43.80
42135;DHT22;28312;43.460;11.810;2022-07-29T12:48:51;37.60;43.10
42135;DHT22;28312;43.460;11.810;2022-07-29T12:53:12;37.60;42.60
42135;DHT22;28312;43.460;11.810;2022-07-29T12:57:19;37.50;42.10
42135;DHT22;28312;43.460;11.810;2022-07-29T13:01:24;37.20;42.70
42135;DHT22;28312;43.460;11.810;2022-07-29T13:05:43;37.20;42.60
42135;DHT22;28312;43.460;11.810;2022-07-29T13:09:51;37.30;42.60
42135;DHT22;28312;43.460;11.810;2022-07-29T13:13:55;37.50;42.20
42135;DHT22;28312;43.460;11.810;2022-07-29T13:18:31;37.60;41.80
42135;DHT22;28312;43.460;11.810;2022-07-29T13:22:35;37.80;41.50
42135;DHT22;28312;43.460;11.810;2022-07-29T13:26:40;37.70;41.10
42135;DHT22;28312;43.460;11.810;2022-07-29T13:30:44;37.60;41.00
42135;DHT22;28312;43.460;11.810;2022-07-29T13:34:48;37.60;40.90
42135;DHT22;28312;43.460;11.810;2022-07-29T13:38:52;37.60;39.80
42135;DHT22;28312;43.460;11.810;2022-07-29T13:42:56;37.50;40.00
42135;DHT22;28312;43.460;11.810;2022-07-29T13:46:59;37.60;39.20
42135;DHT22;28312;43.460;11.810;2022-07-29T13:51:04;37.70;39.40
42135;DHT22;28312;43.460;11.810;2022-07-29T13:55:08;37.80;39.80
42135;DHT22;28312;43.460;11.810;2022-07-29T13:59:12;38.00;39.60
42135;DHT22;28312;43.460;11.810;2022-07-29T14:03:15;38.00;38.80
42135;DHT22;28312;43.460;11.810;2022-07-29T14:07:20;37.70;39.20
42135;DHT22;28312;43.460;11.810;2022-07-29T14:11:24;37.40;39.30
42135;DHT22;28312;43.460;11.810;2022-07-29T14:15:27;37.10;39.30
42135;DHT22;28312;43.460;11.810;2022-07-29T14:19:32;37.00;39.80
42135;DHT22;28312;43.460;11.810;2022-07-29T14:23:39;36.80;40.40
42135;DHT22;28312;43.460;11.810;2022-07-29T14:27:46;36.90;40.10
42135;DHT22;28312;43.460;11.810;2022-07-29T14:31:50;36.80;39.40
42135;DHT22;28312;43.460;11.810;2022-07-29T14:35:54;36.40;39.30
42135;DHT22;28312;43.460;11.810;2022-07-29T14:40:03;35.90;39.60
42135;DHT22;28312;43.460;11.810;2022-07-29T14:44:07;35.40;39.80
42135;DHT22;28312;43.460;11.810;2022-07-29T14:48:11;35.10;40.20
42135;DHT22;28312;43.460;11.810;2022-07-29T14:52:15;34.80;40.50
42135;DHT22;28312;43.460;11.810;2022-07-29T14:56:19;34.70;40.60
42135;DHT22;28312;43.460;11.810;2022-07-29T15:00:39;34.60;40.80
42135;DHT22;28312;43.460;11.810;2022-07-29T15:04:43;34.50;40.90
42135;DHT22;28312;43.460;11.810;2022-07-29T15:08:49;34.10;41.40
42135;DHT22;28312;43.460;11.810;2022-07-29T15:12:54;33.30;42.20
42135;DHT22;28312;43.460;11.810;2022-07-29T15:16:57;32.60;43.00
42135;DHT22;28312;43.460;11.810;2022-07-29T15:21:02;32.00;43.50
42135;DHT22;28312;43.460;11.810;2022-07-29T15:25:10;31.40;44.10
42135;DHT22;28312;43.460;11.810;2022-07-29T15:29:14;30.90;44.60
42135;DHT22;28312;43.460;11.810;2022-07-29T15:33:18;30.60;45.10
42135;DHT22;28312;43.460;11.810;2022-07-29T15:37:22;30.30;45.40
42135;DHT22;28312;43.460;11.810;2022-07-29T15:41:25;30.10;45.70
42135;DHT22;28312;43.460;11.810;2022-07-29T15:45:29;30.00;46.00
42135;DHT22;28312;43.460;11.810;2022-07-29T15:49:43;30.00;46.20
42135;DHT22;28312;43.460;11.810;2022-07-29T15:53:51;30.10;46.30
42135;DHT22;28312;43.460;11.810;2022-07-29T15:57:55;30.30;46.50
42135;DHT22;28312;43.460;11.810;2022-07-29T16:02:03;30.60;47.00
42135;DHT22;28312;43.460;11.810;2022-07-29T16:06:07;30.70;46.80
42135;DHT22;28312;43.460;11.810;2022-07-29T16:10:11;30.40;47.10
42135;DHT22;28312;43.460;11.810;2022-07-29T16:14:15;30.20;47.60
42135;DHT22;28312;43.460;11.810;2022-07-29T16:18:19;30.40;47.80
42135;DHT22;28312;43.460;11.810;2022-07-29T16:22:32;30.80;48.10
42135;DHT22;28312;43.460;11.810;2022-07-29T16:26:35;31.10;47.70
42135;DHT22;28312;43.460;11.810;2022-07-29T16:30:39;31.30;47.70
42135;DHT22;28312;43.460;11.810;2022-07-29T16:34:43;31.40;47.60
42135;DHT22;28312;43.460;11.810;2022-07-29T16:38:47;31.60;47.30
42135;DHT22;28312;43.460;11.810;2022-07-29T16:42:51;31.50;47.10
42135;DHT22;28312;43.460;11.810;2022-07-29T16:46:55;31.30;47.10
42135;DHT22;28312;43.460;11.810;2022-07-29T16:51:01;30.80;47.20
42135;DHT22;28312;43.460;11.810;2022-07-29T16:55:06;30.50;47.40
42135;DHT22;28312;43.460;11.810;2022-07-29T16:59:10;30.20;47.60
42135;DHT22;28312;43.460;11.810;2022-07-29T17:03:14;30.10;47.80
42135;DHT22;28312;43.460;11.810;2022-07-29T17:07:19;29.90;47.80
42135;DHT22;28312;43.460;11.810;2022-07-29T17:11:23;29.90;47.90
42135;DHT22;28312;43.460;11.810;2022-07-29T17:15:47;29.90;47.90
42135;DHT22;28312;43.460;11.810;2022-07-29T17:19:51;29.90;47.90
42135;DHT22;28312;43.460;11.810;2022-07-29T17:23:55;29.90;48.00
42135;DHT22;28312;43.460;11.810;2022-07-29T17:28:00;29.90;47.90
42135;DHT22;28312;43.460;11.810;2022-07-29T17:32:04;29.70;47.80
42135;DHT22;28312;43.460;11.810;2022-07-29T17:36:10;29.60;48.00
42135;DHT22;28312;43.460;11.810;2022-07-29T17:40:31;29.60;48.20
42135;DHT22;28312;43.460;11.810;2022-07-29T17:44:36;29.60;48.20
42135;DHT22;28312;43.460;11.810;2022-07-29T17:48:40;29.60;48.10
42135;DHT22;28312;43.460;11.810;2022-07-29T17:52:43;29.50;48.20
42135;DHT22;28312;43.460;11.810;2022-07-29T17:56:47;29.30;48.30
42135;DHT22;28312;43.460;11.810;2022-07-29T18:00:52;29.10;48.40
42135;DHT22;28312;43.460;11.810;2022-07-29T18:04:56;28.90;48.70
42135;DHT22;28312;43.460;11.810;2022-07-29T18:09:01;28.70;49.00
42135;DHT22;28312;43.460;11.810;2022-07-29T18:13:04;28.50;49.10
42135;DHT22;28312;43.460;11.810;2022-07-29T18:17:08;28.30;49.40
42135;DHT22;28312;43.460;11.810;2022-07-29T18:21:12;28.10;49.50
42135;DHT22;28312;43.460;11.810;2022-07-29T18:25:16;28.00;49.60
42135;DHT22;28312;43.460;11.810;2022-07-29T18:29:19;27.70;49.80
42135;DHT22;28312;43.460;11.810;2022-07-29T18:33:23;27.40;50.10
42135;DHT22;28312;43.460;11.810;2022-07-29T18:37:27;27.10;50.50
42135;DHT22;28312;43.460;11.810;2022-07-29T18:41:51;26.90;50.90
42135;DHT22;28312;43.460;11.810;2022-07-29T18:45:55;26.70;51.10
42135;DHT22;28312;43.460;11.810;2022-07-29T18:49:59;26.60;51.20
42135;DHT22;28312;43.460;11.810;2022-07-29T18:54:04;26.60;51.30
42135;DHT22;28312;43.460;11.810;2022-07-29T18:58:08;26.40;51.50
42135;DHT22;28312;43.460;11.810;2022-07-29T19:02:12;26.20;51.70
42135;DHT22;28312;43.460;11.810;2022-07-29T19:06:16;26.10;51.90
42135;DHT22;28312;43.460;11.810;2022-07-29T19:10:25;25.90;52.20
42135;DHT22;28312;43.460;11.810;2022-07-29T19:14:29;25.80;52.30
42135;DHT22;28312;43.460;11.810;2022-07-29T19:18:33;25.70;52.60
42135;DHT22;28312;43.460;11.810;2022-07-29T19:22:36;25.60;52.90
42135;DHT22;28312;43.460;11.810;2022-07-29T19:26:40;25.60;52.90
42135;DHT22;28312;43.460;11.810;2022-07-29T19:30:48;25.50;53.00
42135;DHT22;28312;43.460;11.810;2022-07-29T19:34:53;25.40;53.10
42135;DHT22;28312;43.460;11.810;2022-07-29T19:39:15;25.40;53.10
42135;DHT22;28312;43.460;11.810;2022-07-29T19:43:19;25.40;53.20
42135;DHT22;28312;43.460;11.810;2022-07-29T19:47:42;25.20;53.30
42135;DHT22;28312;43.460;11.810;2022-07-29T19:51:46;25.10;53.40
42135;DHT22;28312;43.460;11.810;2022-07-29T19:55:50;25.00;53.70
42135;DHT22;28312;43.460;11.810;2022-07-29T19:59:54;24.80;53.90
42135;DHT22;28312;43.460;11.810;2022-07-29T20:03:58;24.60;54.20
42135;DHT22;28312;43.460;11.810;2022-07-29T20:08:02;24.50;54.20
42135;DHT22;28312;43.460;11.810;2022-07-29T20:12:08;24.40;54.40
42135;DHT22;28312;43.460;11.810;2022-07-29T20:16:12;24.30;54.50
42135;DHT22;28312;43.460;11.810;2022-07-29T20:20:17;24.20;54.50
42135;DHT22;28312;43.460;11.810;2022-07-29T20:24:22;24.10;54.70
42135;DHT22;28312;43.460;11.810;2022-07-29T20:28:25;24.00;55.00
42135;DHT22;28312;43.460;11.810;2022-07-29T20:32:29;23.90;55.10
42135;DHT22;28312;43.460;11.810;2022-07-29T20:36:33;23.90;55.20
42135;DHT22;28312;43.460;11.810;2022-07-29T20:40:37;23.80;55.40
42135;DHT22;28312;43.460;11.810;2022-07-29T20:44:42;23.70;55.70
42135;DHT22;28312;43.460;11.810;2022-07-29T20:48:45;23.60;56.30
42135;DHT22;28312;43.460;11.810;2022-07-29T20:52:49;23.70;56.50
42135;DHT22;28312;43.460;11.810;2022-07-29T20:56:53;23.80;56.70
42135;DHT22;28312;43.460;11.810;2022-07-29T21:00:57;23.80;56.80
42135;DHT22;28312;43.460;11.810;2022-07-29T21:05:02;23.90;56.80
42135;DHT22;28312;43.460;11.810;2022-07-29T21:09:05;23.90;56.70
42135;DHT22;28312;43.460;11.810;2022-07-29T21:13:09;23.90;56.80
42135;DHT22;28312;43.460;11.810;2022-07-29T21:17:15;23.90;56.80
42135;DHT22;28312;43.460;11.810;2022-07-29T21:21:23;23.90;57.00
42135;DHT22;28312;43.460;11.810;2022-07-29T21:25:29;23.90;57.00
42135;DHT22;28312;43.460;11.810;2022-07-29T21:29:32;23.80;57.10
42135;DHT22;28312;43.460;11.810;2022-07-29T21:33:37;23.70;57.20
42135;DHT22;28312;43.460;11.810;2022-07-29T21:37:41;23.60;57.50
42135;DHT22;28312;43.460;11.810;2022-07-29T21:41:45;23.70;57.60
42135;DHT22;28312;43.460;11.810;2022-07-29T21:45:51;23.70;57.70
42135;DHT22;28312;43.460;11.810;2022-07-29T21:49:57;23.70;57.80
42135;DHT22;28312;43.460;11.810;2022-07-29T21:54:02;23.70;57.80
42135;DHT22;28312;43.460;11.810;2022-07-29T21:58:06;23.70;57.90
42135;DHT22;28312;43.460;11.810;2022-07-29T22:02:10;23.70;58.00
42135;DHT22;28312;43.460;11.810;2022-07-29T22:06:15;23.70;58.10
42135;DHT22;28312;43.460;11.810;2022-07-29T22:10:24;23.70;58.20
42135;DHT22;28312;43.460;11.810;2022-07-29T22:14:30;23.80;58.30
42135;DHT22;28312;43.460;11.810;2022-07-29T22:18:35;23.90;58.40
42135;DHT22;28312;43.460;11.810;2022-07-29T22:22:41;23.90;58.40
42135;DHT22;28312;43.460;11.810;2022-07-29T22:26:45;23.90;58.70
42135;DHT22;28312;43.460;11.810;2022-07-29T22:30:52;24.00;58.70
42135;DHT22;28312;43.460;11.810;2022-07-29T22:34:57;23.90;58.80
42135;DHT22;28312;43.460;11.810;2022-07-29T22:39:01;24.00;59.00
42135;DHT22;28312;43.460;11.810;2022-07-29T22:43:05;24.00;59.10
42135;DHT22;28312;43.460;11.810;2022-07-29T22:47:09;24.10;59.20
42135;DHT22;28312;43.460;11.810;2022-07-29T22:51:13;24.20;59.30
42135;DHT22;28312;43.460;11.810;2022-07-29T22:55:17;24.30;59.40
42135;DHT22;28312;43.460;11.810;2022-07-29T22:59:21;24.40;59.50
42135;DHT22;28312;43.460;11.810;2022-07-29T23:03:25;24.40;59.40
42135;DHT22;28312;43.460;11.810;2022-07-29T23:07:29;24.50;59.40
42135;DHT22;28312;43.460;11.810;2022-07-29T23:11:33;24.60;59.40
42135;DHT22;28312;43.460;11.810;2022-07-29T23:15:37;24.60;59.40
42135;DHT22;28312;43.460;11.810;2022-07-29T23:19:42;24.70;59.30
42135;DHT22;28312;43.460;11.810;2022-07-29T23:23:47;24.70;59.30
42135;DHT22;28312;43.460;11.810;2022-07-29T23:27:51;24.70;59.20
42135;DHT22;28312;43.460;11.810;2022-07-29T23:31:54;24.80;59.10
42135;DHT22;28312;43.460;11.810;2022-07-29T23:35:58;24.80;59.00
42135;DHT22;28312;43.460;11.810;2022-07-29T23:40:03;24.80;59.10
42135;DHT22;28312;43.460;11.810;2022-07-29T23:44:14;24.80;59.10
42135;DHT22;28312;43.460;11.810;2022-07-29T23:48:18;24.80;59.00
42135;DHT22;28312;43.460;11.810;2022-07-29T23:52:23;24.80;59.00
42135;DHT22;28312;43.460;11.810;2022-07-29T23:56:26;24.90;58.90
